createdAt,value
2022-09-20T00:00:45.465Z,10.29
2022-09-20T00:03:13.938Z,10.19
2022-09-20T00:05:43.214Z,10.27
2022-09-20T00:08:14.293Z,10.35
2022-09-20T00:10:43.096Z,10.37
2022-09-20T00:13:13.795Z,10.36
2022-09-20T00:15:42.766Z,10.29
2022-09-20T00:18:11.489Z,10.35
2022-09-20T00:20:45.641Z,10.31
2022-09-20T00:23:13.063Z,10.31
2022-09-20T00:25:40.270Z,10.34
2022-09-20T00:28:08.125Z,10.31
2022-09-20T00:30:37.357Z,10.37
2022-09-20T00:33:04.906Z,10.36
2022-09-20T00:35:32.101Z,10.41
2022-09-20T00:37:59.390Z,10.47
2022-09-20T00:40:30.491Z,10.38
2022-09-20T00:42:57.728Z,10.41
2022-09-20T00:45:27.310Z,10.38
2022-09-20T00:47:59.699Z,10.32
2022-09-20T00:50:33.516Z,10.27
2022-09-20T00:53:05.527Z,10.33
2022-09-20T00:55:34.816Z,10.35
2022-09-20T00:58:02.764Z,10.47
2022-09-20T01:00:30.259Z,10.37
2022-09-20T01:03:03.912Z,10.39
2022-09-20T01:05:31.153Z,10.35
2022-09-20T01:07:58.544Z,10.36
2022-09-20T01:10:25.859Z,10.39
2022-09-20T01:12:54.410Z,10.33
2022-09-20T01:15:24.048Z,10.34
2022-09-20T01:17:55.270Z,10.38
2022-09-20T01:20:27.283Z,10.34
2022-09-20T01:23:26.662Z,10.34
2022-09-20T01:26:32.687Z,10.38
2022-09-20T01:29:13.601Z,10.36
2022-09-20T01:31:46.013Z,10.33
2022-09-20T01:34:17.242Z,10.31
2022-09-20T01:36:49.836Z,10.29
2022-09-20T01:39:26.312Z,10.30
2022-09-20T01:41:58.033Z,10.38
2022-09-20T01:44:36.144Z,10.36
2022-09-20T01:47:11.308Z,10.47
2022-09-20T01:49:52.294Z,10.60
2022-09-20T01:52:50.023Z,10.58
2022-09-20T01:55:42.585Z,10.50
2022-09-20T01:58:34.127Z,10.43
2022-09-20T02:01:31.542Z,10.38
2022-09-20T02:04:34.080Z,10.45
2022-09-20T02:07:17.847Z,10.45
2022-09-20T02:10:11.197Z,10.38
2022-09-20T02:12:56.596Z,10.28
2022-09-20T02:15:59.636Z,10.24
2022-09-20T02:18:42.740Z,10.32
2022-09-20T02:21:20.016Z,10.32
2022-09-20T02:23:56.680Z,10.30
2022-09-20T02:26:39.498Z,10.40
2022-09-20T02:29:18.507Z,10.31
2022-09-20T02:31:59.851Z,10.31
2022-09-20T02:35:00.344Z,10.29
2022-09-20T02:37:51.254Z,10.34
2022-09-20T02:40:33.831Z,10.38
2022-09-20T02:43:07.793Z,10.34
2022-09-20T02:45:43.189Z,10.30
2022-09-20T02:48:11.026Z,10.36
2022-09-20T02:50:47.144Z,10.43
2022-09-20T02:53:32.849Z,10.48
2022-09-20T02:56:07.421Z,10.45
2022-09-20T02:58:46.667Z,10.40
2022-09-20T03:01:21.567Z,10.43
2022-09-20T03:03:58.715Z,10.50
2022-09-20T03:06:33.860Z,10.43
2022-09-20T03:09:11.359Z,10.31
2022-09-20T03:11:47.730Z,10.41
2022-09-20T03:14:23.226Z,10.46
2022-09-20T03:17:08.990Z,10.48
2022-09-20T03:19:51.524Z,10.39
2022-09-20T03:22:31.231Z,10.53
2022-09-20T03:25:23.168Z,10.41
2022-09-20T03:28:03.583Z,10.39
2022-09-20T03:30:46.588Z,10.32
2022-09-20T03:33:22.801Z,10.46
2022-09-20T03:36:08.776Z,10.47
2022-09-20T03:39:01.546Z,10.48
2022-09-20T03:41:47.267Z,10.47
2022-09-20T03:44:37.908Z,10.55
2022-09-20T03:47:20.063Z,10.51
2022-09-20T03:50:05.403Z,10.49
2022-09-20T03:52:53.255Z,10.48
2022-09-20T03:55:37.475Z,10.55
2022-09-20T03:58:20.824Z,10.72
2022-09-20T04:01:08.738Z,10.65
2022-09-20T04:03:46.238Z,10.67
2022-09-20T04:06:29.605Z,10.65
2022-09-20T04:09:20.138Z,10.62
2022-09-20T04:11:55.180Z,10.54
2022-09-20T04:14:32.569Z,10.50
2022-09-20T04:17:11.707Z,10.58
2022-09-20T04:19:47.151Z,10.64
2022-09-20T04:22:14.953Z,10.71
2022-09-20T04:24:55.776Z,10.74
2022-09-20T04:27:29.512Z,10.67
2022-09-20T04:30:01.886Z,10.66
2022-09-20T04:32:36.906Z,10.72
2022-09-20T04:35:43.986Z,10.65
2022-09-20T04:38:14.968Z,10.76
2022-09-20T04:41:01.526Z,10.88
2022-09-20T04:44:01.364Z,10.68
2022-09-20T04:47:13.848Z,11.01
2022-09-20T04:50:19.261Z,10.94
2022-09-20T04:52:56.801Z,11.05
2022-09-20T04:55:54.666Z,10.99
2022-09-20T04:58:47.199Z,10.87
2022-09-20T05:01:52.001Z,10.89
2022-09-20T05:04:54.066Z,10.95
2022-09-20T05:07:46.282Z,10.88
2022-09-20T05:10:26.408Z,10.88
2022-09-20T05:13:11.846Z,10.98
2022-09-20T05:15:44.580Z,10.87
2022-09-20T05:18:37.775Z,11.01
2022-09-20T05:21:20.127Z,10.93
2022-09-20T05:24:01.474Z,11.08
2022-09-20T05:26:42.120Z,10.93
2022-09-20T05:29:18.318Z,10.96
2022-09-20T05:31:54.436Z,11.04
2022-09-20T05:34:32.039Z,10.97
2022-09-20T05:37:10.532Z,10.99
2022-09-20T05:39:42.500Z,11.01
2022-09-20T05:42:18.491Z,11.00
2022-09-20T05:45:00.845Z,11.06
2022-09-20T05:47:36.301Z,11.17
2022-09-20T05:50:39.472Z,11.36
2022-09-20T05:53:35.038Z,11.43
2022-09-20T05:56:16.923Z,11.36
2022-09-20T05:59:02.209Z,11.37
2022-09-20T06:01:34.682Z,11.31
2022-09-20T06:04:13.116Z,11.24
2022-09-20T06:06:50.985Z,11.11
2022-09-20T06:09:46.048Z,11.23
2022-09-20T06:12:39.972Z,11.28
2022-09-20T06:15:19.880Z,11.34
2022-09-20T06:17:55.516Z,11.27
2022-09-20T06:20:29.910Z,11.36
2022-09-20T06:23:00.323Z,11.38
2022-09-20T06:25:37.892Z,11.42
2022-09-20T06:28:12.427Z,11.59
2022-09-20T06:30:43.860Z,11.78
2022-09-20T06:33:18.468Z,11.85
2022-09-20T06:35:53.825Z,12.07
2022-09-20T06:39:04.046Z,12.15
2022-09-20T06:41:34.881Z,12.18
2022-09-20T06:44:06.596Z,12.02
2022-09-20T06:46:36.294Z,12.06
2022-09-20T06:49:04.314Z,12.17
2022-09-20T06:51:35.841Z,12.17
2022-09-20T06:54:04.302Z,12.10
2022-09-20T06:56:36.504Z,12.05
2022-09-20T06:59:03.781Z,12.14
2022-09-20T07:01:31.551Z,12.14
2022-09-20T07:03:59.243Z,12.07
2022-09-20T07:06:26.895Z,12.10
2022-09-20T07:08:54.156Z,12.19
2022-09-20T07:11:23.310Z,12.05
2022-09-20T07:13:53.948Z,12.22
2022-09-20T07:16:21.939Z,12.31
2022-09-20T07:18:49.927Z,12.37
2022-09-20T07:21:18.698Z,12.16
2022-09-20T07:23:48.667Z,12.21
2022-09-20T07:26:18.785Z,12.17
2022-09-20T07:28:46.371Z,12.04
2022-09-20T07:31:15.057Z,12.05
2022-09-20T07:33:42.510Z,12.16
2022-09-20T07:36:12.462Z,12.24
2022-09-20T07:38:39.776Z,12.34
2022-09-20T07:41:07.630Z,12.60
2022-09-20T07:43:35.200Z,12.60
2022-09-20T07:46:03.348Z,12.68
2022-09-20T07:48:34.340Z,12.80
2022-09-20T07:51:06.826Z,12.93
2022-09-20T07:53:36.194Z,12.97
2022-09-20T07:56:05.666Z,13.03
2022-09-20T07:58:35.010Z,12.88
2022-09-20T08:01:03.929Z,12.87
2022-09-20T08:03:33.765Z,12.88
2022-09-20T08:06:02.049Z,12.93
2022-09-20T08:08:32.319Z,12.99
2022-09-20T08:11:05.604Z,13.02
2022-09-20T08:16:24.260Z,13.40
2022-09-20T08:18:58.985Z,13.46
2022-09-20T08:21:28.381Z,13.45
2022-09-20T08:23:56.115Z,13.33
2022-09-20T08:26:24.928Z,13.27
2022-09-20T08:28:53.576Z,13.35
2022-09-20T08:31:22.225Z,13.14
2022-09-20T08:33:50.805Z,13.15
2022-09-20T08:36:21.384Z,13.21
2022-09-20T08:41:42.544Z,13.43
2022-09-20T08:44:17.312Z,13.45
2022-09-20T08:46:49.134Z,13.38
2022-09-20T08:49:23.350Z,13.40
2022-09-20T08:51:58.198Z,13.55
2022-09-20T08:54:32.179Z,13.75
2022-09-20T08:57:07.254Z,13.83
2022-09-20T08:59:35.215Z,13.82
2022-09-20T09:02:02.419Z,13.94
2022-09-20T09:04:35.800Z,14.09
2022-09-20T09:07:04.880Z,14.38
2022-09-20T09:09:41.642Z,14.55
2022-09-20T09:12:17.990Z,14.66
2022-09-20T09:14:48.279Z,14.34
2022-09-20T09:17:16.995Z,14.03
2022-09-20T09:19:46.087Z,13.74
2022-09-20T09:22:19.876Z,13.77
2022-09-20T09:25:07.551Z,13.73
2022-09-20T09:27:35.345Z,13.78
2022-09-20T09:30:02.840Z,13.92
2022-09-20T09:32:33.063Z,13.88
2022-09-20T09:35:25.786Z,13.87
2022-09-20T09:37:59.109Z,13.97
2022-09-20T09:40:27.459Z,14.03
2022-09-20T09:42:56.971Z,14.38
2022-09-20T09:45:30.613Z,14.49
2022-09-20T09:48:00.475Z,14.47
2022-09-20T09:50:30.618Z,14.54
2022-09-20T09:53:03.020Z,14.75
2022-09-20T09:55:44.799Z,14.93
2022-09-20T09:58:22.823Z,14.98
2022-09-20T10:00:53.870Z,15.15
2022-09-20T10:03:32.927Z,15.25
2022-09-20T10:06:11.229Z,15.25
2022-09-20T10:08:54.713Z,15.39
2022-09-20T10:11:35.491Z,15.36
2022-09-20T10:14:14.718Z,15.36
2022-09-20T10:16:58.624Z,15.19
2022-09-20T10:19:43.561Z,14.92
2022-09-20T10:22:21.670Z,14.60
2022-09-20T10:25:03.060Z,14.69
2022-09-20T10:27:48.494Z,14.58
2022-09-20T10:30:20.032Z,14.64
2022-09-20T10:33:03.819Z,14.58
2022-09-20T10:35:45.248Z,14.67
2022-09-20T10:38:15.592Z,14.65
2022-09-20T10:41:26.412Z,14.61
2022-09-20T10:44:07.776Z,14.41
2022-09-20T10:46:44.464Z,14.40
2022-09-20T10:49:25.090Z,14.23
2022-09-20T10:52:09.712Z,14.19
2022-09-20T10:54:50.104Z,14.44
2022-09-20T10:57:42.106Z,14.47
2022-09-20T11:00:21.402Z,14.59
2022-09-20T11:03:08.556Z,14.61
2022-09-20T11:05:50.178Z,14.55
2022-09-20T11:08:22.997Z,14.53
2022-09-20T11:10:54.371Z,14.54
2022-09-20T11:13:28.323Z,14.61
2022-09-20T11:16:03.091Z,14.57
2022-09-20T11:18:38.443Z,14.57
2022-09-20T11:21:12.035Z,14.39
2022-09-20T11:23:51.468Z,14.14
2022-09-20T11:26:25.730Z,14.15
2022-09-20T11:28:58.799Z,14.22
2022-09-20T11:31:31.261Z,14.26
2022-09-20T11:34:07.851Z,14.47
2022-09-20T11:36:42.898Z,14.38
2022-09-20T11:39:15.695Z,14.38
2022-09-20T11:41:44.923Z,14.54
2022-09-20T11:44:17.203Z,14.34
2022-09-20T11:46:54.498Z,14.12
2022-09-20T11:49:27.113Z,13.86
2022-09-20T11:52:18.509Z,13.81
2022-09-20T11:55:00.851Z,13.60
2022-09-20T11:57:28.680Z,13.64
2022-09-20T12:00:01.743Z,13.47
2022-09-20T12:02:47.645Z,13.53
2022-09-20T12:05:28.104Z,13.62
2022-09-20T12:07:58.327Z,13.70
2022-09-20T12:10:27.820Z,13.93
2022-09-20T12:13:00.053Z,13.87
2022-09-20T12:15:31.859Z,13.84
2022-09-20T12:18:15.609Z,13.77
2022-09-20T12:21:09.043Z,13.62
2022-09-20T12:24:20.102Z,13.73
2022-09-20T12:26:49.554Z,14.03
2022-09-20T12:29:50.278Z,14.37
2022-09-20T12:32:45.644Z,14.79
2022-09-20T12:35:55.504Z,14.81
2022-09-20T12:38:29.081Z,15.15
2022-09-20T12:41:02.343Z,15.29
2022-09-20T12:43:32.070Z,15.35
2022-09-20T12:46:08.662Z,15.51
2022-09-20T12:48:40.125Z,15.75
2022-09-20T12:51:40.720Z,15.87
2022-09-20T12:54:10.643Z,16.07
2022-09-20T12:56:40.463Z,16.07
2022-09-20T12:59:22.027Z,15.97
2022-09-20T13:01:49.722Z,15.86
2022-09-20T13:04:53.850Z,15.99
2022-09-20T13:07:44.230Z,16.10
2022-09-20T13:10:26.384Z,16.34
2022-09-20T13:13:01.324Z,16.72
2022-09-20T13:15:29.653Z,17.04
2022-09-20T13:18:01.563Z,16.82
2022-09-20T13:20:34.868Z,16.69
2022-09-20T13:23:05.164Z,16.24
2022-09-20T13:25:34.295Z,15.97
2022-09-20T13:28:08.440Z,15.68
2022-09-20T13:30:35.967Z,15.33
2022-09-20T13:33:22.468Z,15.23
2022-09-20T13:35:54.671Z,15.13
2022-09-20T13:38:31.894Z,14.85
2022-09-20T13:41:06.427Z,14.80
2022-09-20T13:43:38.216Z,14.66
2022-09-20T13:46:10.906Z,14.60
2022-09-20T13:48:39.080Z,14.79
2022-09-20T13:51:17.961Z,15.04
2022-09-20T13:53:47.569Z,14.98
2022-09-20T13:56:20.814Z,14.77
2022-09-20T13:58:49.428Z,14.65
2022-09-20T14:01:35.592Z,14.67
2022-09-20T14:04:14.269Z,14.44
2022-09-20T14:06:43.643Z,14.47
2022-09-20T14:09:21.792Z,14.48
2022-09-20T14:11:49.686Z,14.41
2022-09-20T14:14:22.043Z,14.22
2022-09-20T14:16:51.787Z,14.03
2022-09-20T14:19:21.538Z,14.07
2022-09-20T14:21:50.518Z,14.13
2022-09-20T14:24:27.493Z,13.97
2022-09-20T14:27:04.092Z,13.84
2022-09-20T14:29:40.163Z,13.88
2022-09-20T14:32:25.679Z,13.81
2022-09-20T14:35:00.666Z,13.88
2022-09-20T14:37:31.768Z,13.77
2022-09-20T14:40:02.380Z,13.71
2022-09-20T14:42:42.577Z,13.61
2022-09-20T14:45:23.511Z,13.67
2022-09-20T14:47:58.719Z,13.65
2022-09-20T14:50:29.420Z,13.58
2022-09-20T14:53:21.658Z,13.63
2022-09-20T14:56:07.029Z,13.65
2022-09-20T14:58:34.224Z,13.66
2022-09-20T15:01:06.330Z,13.50
2022-09-20T15:03:34.379Z,13.49
2022-09-20T15:06:01.589Z,13.38
2022-09-20T15:08:30.349Z,13.33
2022-09-20T15:10:59.703Z,13.30
2022-09-20T15:13:27.000Z,13.23
2022-09-20T15:15:54.742Z,13.13
2022-09-20T15:18:23.842Z,13.06
2022-09-20T15:20:51.500Z,13.12
2022-09-20T15:23:19.505Z,13.10
2022-09-20T15:25:50.377Z,13.07
2022-09-20T15:28:18.156Z,12.97
2022-09-20T15:30:50.573Z,12.89
2022-09-20T15:33:19.355Z,12.86
2022-09-20T15:35:47.605Z,12.77
2022-09-20T15:38:18.090Z,12.72
2022-09-20T15:40:51.455Z,12.66
2022-09-20T15:43:21.988Z,12.65
2022-09-20T15:45:51.113Z,12.62
2022-09-20T15:48:22.604Z,12.62
2022-09-20T15:51:06.042Z,12.65
2022-09-20T15:53:35.868Z,12.60
2022-09-20T15:56:15.312Z,12.61
2022-09-20T15:58:48.587Z,12.58
2022-09-20T16:01:16.867Z,12.52
2022-09-20T16:03:45.542Z,12.52
2022-09-20T16:06:13.607Z,12.43
2022-09-20T16:08:43.360Z,12.37
2022-09-20T16:11:15.278Z,12.31
2022-09-20T16:13:44.533Z,12.25
2022-09-20T16:16:15.950Z,12.19
2022-09-20T16:19:01.808Z,12.18
2022-09-20T16:21:29.122Z,12.13
2022-09-20T16:23:57.648Z,12.14
2022-09-20T16:26:34.022Z,12.10
2022-09-20T16:29:02.696Z,12.11
2022-09-20T16:31:35.385Z,12.07
2022-09-20T16:34:03.989Z,12.05
2022-09-20T16:36:31.758Z,12.04
2022-09-20T16:38:59.525Z,12.01
2022-09-20T16:41:29.221Z,11.94
2022-09-20T16:43:56.615Z,11.94
2022-09-20T16:46:27.318Z,11.85
2022-09-20T16:48:55.537Z,11.95
2022-09-20T16:51:24.882Z,11.92
2022-09-20T16:53:55.755Z,11.90
2022-09-20T16:56:24.873Z,11.88
2022-09-20T16:58:54.528Z,11.88
2022-09-20T17:01:22.330Z,11.75
2022-09-20T17:03:49.628Z,11.82
2022-09-20T17:06:19.118Z,11.76
2022-09-20T17:08:47.495Z,11.74
2022-09-20T17:11:16.996Z,11.71
2022-09-20T17:13:45.462Z,11.65
2022-09-20T17:16:16.930Z,11.65
2022-09-20T17:18:44.306Z,11.65
2022-09-20T17:21:14.059Z,11.62
2022-09-20T17:23:42.424Z,11.59
2022-09-20T17:26:13.861Z,11.57
2022-09-20T17:28:44.113Z,11.55
2022-09-20T17:31:14.840Z,11.53
2022-09-20T17:33:43.352Z,11.51
2022-09-20T17:36:15.588Z,11.52
2022-09-20T17:38:42.891Z,11.53
2022-09-20T17:41:14.094Z,11.33
2022-09-20T17:43:42.393Z,11.46
2022-09-20T17:46:14.038Z,11.46
2022-09-20T17:48:42.583Z,11.42
2022-09-20T17:51:12.654Z,11.40
2022-09-20T17:53:40.227Z,11.38
2022-09-20T17:56:07.590Z,11.34
2022-09-20T17:58:36.508Z,11.31
2022-09-20T18:01:07.780Z,11.27
2022-09-20T18:03:42.711Z,11.24
2022-09-20T18:06:17.644Z,11.17
2022-09-20T18:08:51.499Z,11.11
2022-09-20T18:11:23.803Z,11.04
2022-09-20T18:13:56.860Z,10.93
2022-09-20T18:16:24.223Z,10.97
2022-09-20T18:18:53.147Z,10.96
2022-09-20T18:21:25.751Z,10.97
2022-09-20T18:23:53.216Z,10.98
2022-09-20T18:26:24.830Z,10.96
2022-09-20T18:28:57.114Z,10.99
2022-09-20T18:31:36.129Z,10.99
2022-09-20T18:34:07.036Z,11.07
2022-09-20T18:36:36.768Z,11.09
2022-09-20T18:39:16.608Z,11.00
2022-09-20T18:41:44.154Z,11.02
2022-09-20T18:44:15.040Z,11.00
2022-09-20T18:46:43.128Z,10.94
2022-09-20T18:49:18.178Z,10.91
2022-09-20T18:51:48.539Z,10.82
2022-09-20T18:54:22.596Z,10.78
2022-09-20T18:56:51.450Z,10.79
2022-09-20T18:59:23.253Z,10.74
2022-09-20T19:02:05.478Z,10.61
2022-09-20T19:04:50.311Z,10.75
2022-09-20T19:07:32.973Z,10.74
2022-09-20T19:10:07.116Z,10.69
2022-09-20T19:12:39.540Z,10.66
2022-09-20T19:15:22.712Z,10.61
2022-09-20T19:18:04.344Z,10.65
2022-09-20T19:20:37.725Z,10.45
2022-09-20T19:23:25.423Z,10.60
2022-09-20T19:26:03.733Z,10.59
2022-09-20T19:28:31.649Z,10.55
2022-09-20T19:30:59.612Z,10.52
2022-09-20T19:33:28.099Z,10.52
2022-09-20T19:35:59.326Z,10.45
2022-09-20T19:38:36.068Z,10.42
2022-09-20T19:41:18.268Z,10.34
2022-09-20T19:44:06.167Z,10.31
2022-09-20T19:46:46.708Z,10.03
2022-09-20T19:49:15.923Z,10.29
2022-09-20T19:51:45.671Z,10.26
2022-09-20T19:54:15.174Z,10.17
2022-09-20T19:56:52.944Z,10.18
2022-09-20T19:59:21.958Z,10.17
2022-09-20T20:01:50.105Z,10.15
2022-09-20T20:04:17.780Z,10.11
2022-09-20T20:06:58.865Z,10.11
2022-09-20T20:09:35.242Z,10.06
2022-09-20T20:12:14.719Z,10.02
2022-09-20T20:14:54.488Z,10.01
2022-09-20T20:17:36.199Z,9.94
2022-09-20T20:20:27.938Z,9.88
2022-09-20T20:23:34.736Z,9.85
2022-09-20T20:26:06.456Z,9.68
2022-09-20T20:28:34.130Z,9.74
2022-09-20T20:31:04.442Z,9.71
2022-09-20T20:33:33.006Z,9.68
2022-09-20T20:36:02.211Z,9.64
2022-09-20T20:38:37.658Z,9.62
2022-09-20T20:41:10.008Z,9.57
2022-09-20T20:43:39.583Z,9.63
2022-09-20T20:46:08.593Z,9.62
2022-09-20T20:48:37.163Z,9.62
2022-09-20T20:51:08.077Z,9.58
2022-09-20T20:53:38.429Z,9.63
2022-09-20T20:56:08.059Z,9.54
2022-09-20T20:58:36.466Z,9.51
2022-09-20T21:01:09.296Z,9.49
2022-09-20T21:03:36.797Z,9.44
2022-09-20T21:06:05.066Z,9.39
2022-09-20T21:08:34.200Z,9.34
2022-09-20T21:11:05.492Z,9.28
2022-09-20T21:13:33.116Z,9.23
2022-09-20T21:16:06.041Z,9.21
2022-09-20T21:18:33.676Z,9.24
2022-09-20T21:21:01.014Z,9.28
2022-09-20T21:23:28.543Z,9.30
2022-09-20T21:26:07.957Z,9.30
2022-09-20T21:28:36.955Z,9.19
2022-09-20T21:31:06.024Z,9.22
2022-09-20T21:33:34.838Z,9.15
2022-09-20T21:36:03.077Z,9.08
2022-09-20T21:38:33.368Z,9.01
2022-09-20T21:41:07.835Z,8.99
2022-09-20T21:43:36.339Z,9.00
2022-09-20T21:46:04.096Z,9.04
2022-09-20T21:48:31.333Z,9.04
2022-09-20T21:51:03.585Z,8.83
2022-09-20T21:53:31.262Z,9.06
2022-09-20T21:55:59.289Z,9.09
2022-09-20T21:58:28.391Z,9.11
2022-09-20T22:01:03.900Z,9.09
2022-09-20T22:03:34.164Z,9.15
2022-09-20T22:06:10.376Z,9.06
2022-09-20T22:08:38.907Z,9.07
2022-09-20T22:11:10.223Z,9.02
2022-09-20T22:13:43.047Z,8.90
2022-09-20T22:16:12.431Z,8.84
2022-09-20T22:18:42.427Z,8.77
2022-09-20T22:21:12.094Z,8.84
2022-09-20T22:23:39.732Z,8.82
2022-09-20T22:26:09.113Z,8.68
2022-09-20T22:28:37.267Z,8.77
2022-09-20T22:31:08.173Z,8.75
2022-09-20T22:33:35.694Z,8.74
2022-09-20T22:36:03.484Z,8.76
2022-09-20T22:38:31.471Z,8.78
2022-09-20T22:40:59.379Z,8.78
2022-09-20T22:43:29.984Z,8.81
2022-09-20T22:46:02.611Z,8.82
2022-09-20T22:48:31.819Z,8.81
2022-09-20T22:51:00.467Z,8.75
2022-09-20T22:53:28.576Z,8.68
2022-09-20T22:56:02.556Z,8.63
2022-09-20T22:58:31.955Z,8.57
2022-09-20T23:01:07.755Z,8.57
2022-09-20T23:03:36.668Z,8.56
2022-09-20T23:06:03.962Z,8.53
2022-09-20T23:08:32.367Z,8.54
2022-09-20T23:11:01.120Z,8.53
2022-09-20T23:13:28.535Z,8.51
2022-09-20T23:15:55.938Z,8.49
2022-09-20T23:18:27.087Z,8.48
2022-09-20T23:21:02.391Z,8.44
2022-09-20T23:23:29.831Z,8.38
2022-09-20T23:26:05.224Z,8.34
2022-09-20T23:28:32.524Z,8.27
2022-09-20T23:31:04.268Z,8.22
2022-09-20T23:33:32.553Z,8.21
2022-09-20T23:36:01.747Z,8.19
2022-09-20T23:38:29.326Z,8.22
2022-09-20T23:40:57.300Z,8.22
2022-09-20T23:43:24.448Z,8.22
2022-09-20T23:45:51.828Z,8.21
2022-09-20T23:48:19.234Z,8.25
2022-09-20T23:50:46.486Z,8.25
2022-09-20T23:53:15.125Z,8.26
2022-09-20T23:55:42.748Z,8.27
2022-09-20T23:58:10.070Z,8.25
